sensor_id;sensor_type;location;lat;lon;timestamp;pressure;altitude;pressure_sealevel;temperature;humidity
71791;BME280;59638;52.126;5.434;2024-02-23T00:01:44;98673.31;;;4.09;100.00
71791;BME280;59638;52.126;5.434;2024-02-23T00:04:11;98677.41;;;4.12;100.00
71791;BME280;59638;52.126;5.434;2024-02-23T00:06:38;98667.47;;;4.16;100.00
71791;BME280;59638;52.126;5.434;2024-02-23T00:09:04;98679.31;;;4.28;100.00
71791;BME280;59638;52.126;5.434;2024-02-23T00:11:31;98683.94;;;4.34;100.00
71791;BME280;59638;52.126;5.434;2024-02-23T00:13:59;98690.88;;;4.43;100.00
71791;BME280;59638;52.126;5.434;2024-02-23T00:16:26;98690.28;;;4.49;100.00
71791;BME280;59638;52.126;5.434;2024-02-23T00:18:53;98693.78;;;4.58;100.00
71791;BME280;59638;52.126;5.434;2024-02-23T00:21:19;98692.63;;;4.60;100.00
71791;BME280;59638;52.126;5.434;2024-02-23T00:23:45;98701.38;;;4.69;100.00
71791;BME280;59638;52.126;5.434;2024-02-23T00:26:12;98696.28;;;4.68;100.00
71791;BME280;59638;52.126;5.434;2024-02-23T00:28:38;98697.41;;;4.65;100.00
71791;BME280;59638;52.126;5.434;2024-02-23T00:31:05;98704.44;;;4.64;100.00
71791;BME280;59638;52.126;5.434;2024-02-23T00:33:31;98705.25;;;4.65;100.00
71791;BME280;59638;52.126;5.434;2024-02-23T00:35:58;98715.91;;;4.72;100.00
71791;BME280;59638;52.126;5.434;2024-02-23T00:38:24;98710.69;;;4.72;100.00
71791;BME280;59638;52.126;5.434;2024-02-23T00:40:51;98713.16;;;4.73;100.00
71791;BME280;59638;52.126;5.434;2024-02-23T00:43:19;98720.81;;;4.75;100.00
71791;BME280;59638;52.126;5.434;2024-02-23T00:45:45;98712.53;;;4.79;100.00
71791;BME280;59638;52.126;5.434;2024-02-23T00:48:12;98718.63;;;4.88;100.00
71791;BME280;59638;52.126;5.434;2024-02-23T00:50:40;98725.84;;;4.94;100.00
71791;BME280;59638;52.126;5.434;2024-02-23T00:53:06;98730.47;;;5.00;100.00
71791;BME280;59638;52.126;5.434;2024-02-23T00:55:32;98722.63;;;5.00;100.00
71791;BME280;59638;52.126;5.434;2024-02-23T00:57:59;98727.69;;;5.02;100.00
71791;BME280;59638;52.126;5.434;2024-02-23T01:00:25;98723.00;;;5.05;100.00
71791;BME280;59638;52.126;5.434;2024-02-23T01:02:52;98735.47;;;5.11;100.00
71791;BME280;59638;52.126;5.434;2024-02-23T01:05:18;98723.66;;;5.07;100.00
71791;BME280;59638;52.126;5.434;2024-02-23T01:07:45;98750.78;;;5.06;100.00
71791;BME280;59638;52.126;5.434;2024-02-23T01:10:12;98745.88;;;5.03;100.00
71791;BME280;59638;52.126;5.434;2024-02-23T01:12:38;98767.09;;;5.00;100.00
71791;BME280;59638;52.126;5.434;2024-02-23T01:15:05;98776.81;;;4.90;100.00
71791;BME280;59638;52.126;5.434;2024-02-23T01:17:31;98775.72;;;4.75;100.00
71791;BME280;59638;52.126;5.434;2024-02-23T01:19:58;98785.38;;;4.56;100.00
71791;BME280;59638;52.126;5.434;2024-02-23T01:22:25;98782.75;;;4.56;100.00
71791;BME280;59638;52.126;5.434;2024-02-23T01:24:51;98771.94;;;4.51;100.00
71791;BME280;59638;52.126;5.434;2024-02-23T01:27:18;98781.03;;;4.47;100.00
71791;BME280;59638;52.126;5.434;2024-02-23T01:29:44;98776.72;;;4.38;100.00
71791;BME280;59638;52.126;5.434;2024-02-23T01:32:11;98785.53;;;4.37;100.00
71791;BME280;59638;52.126;5.434;2024-02-23T01:34:37;98790.88;;;4.53;100.00
71791;BME280;59638;52.126;5.434;2024-02-23T01:37:04;98807.84;;;4.49;100.00
71791;BME280;59638;52.126;5.434;2024-02-23T01:39:30;98816.28;;;4.43;100.00
71791;BME280;59638;52.126;5.434;2024-02-23T01:41:57;98824.78;;;4.45;100.00
71791;BME280;59638;52.126;5.434;2024-02-23T01:44:23;98809.38;;;4.42;100.00
71791;BME280;59638;52.126;5.434;2024-02-23T01:46:50;98800.66;;;4.33;100.00
71791;BME280;59638;52.126;5.434;2024-02-23T01:49:17;98808.25;;;4.27;100.00
71791;BME280;59638;52.126;5.434;2024-02-23T01:51:44;98816.63;;;4.30;100.00
71791;BME280;59638;52.126;5.434;2024-02-23T01:54:10;98828.94;;;4.38;100.00
71791;BME280;59638;52.126;5.434;2024-02-23T01:56:37;98832.31;;;4.48;100.00
71791;BME280;59638;52.126;5.434;2024-02-23T01:59:06;98837.31;;;4.59;100.00
71791;BME280;59638;52.126;5.434;2024-02-23T02:01:33;98832.31;;;4.66;100.00
71791;BME280;59638;52.126;5.434;2024-02-23T02:03:59;98832.47;;;4.64;100.00
71791;BME280;59638;52.126;5.434;2024-02-23T02:06:26;98839.50;;;4.64;100.00
71791;BME280;59638;52.126;5.434;2024-02-23T02:08:53;98846.53;;;4.63;100.00
71791;BME280;59638;52.126;5.434;2024-02-23T02:11:20;98844.19;;;4.60;100.00
71791;BME280;59638;52.126;5.434;2024-02-23T02:13:46;98849.03;;;4.55;100.00
71791;BME280;59638;52.126;5.434;2024-02-23T02:16:13;98838.56;;;4.55;100.00
71791;BME280;59638;52.126;5.434;2024-02-23T02:18:39;98841.19;;;4.55;100.00
71791;BME280;59638;52.126;5.434;2024-02-23T02:21:06;98839.03;;;4.51;100.00
71791;BME280;59638;52.126;5.434;2024-02-23T02:23:32;98855.00;;;4.48;100.00
71791;BME280;59638;52.126;5.434;2024-02-23T02:25:59;98849.25;;;4.44;100.00
71791;BME280;59638;52.126;5.434;2024-02-23T02:28:26;98844.31;;;4.41;100.00
71791;BME280;59638;52.126;5.434;2024-02-23T02:30:52;98847.09;;;4.40;100.00
71791;BME280;59638;52.126;5.434;2024-02-23T02:33:20;98848.88;;;4.39;100.00
71791;BME280;59638;52.126;5.434;2024-02-23T02:35:47;98842.69;;;4.40;100.00
71791;BME280;59638;52.126;5.434;2024-02-23T02:38:14;98840.22;;;4.39;100.00
71791;BME280;59638;52.126;5.434;2024-02-23T02:40:41;98842.84;;;4.39;100.00
71791;BME280;59638;52.126;5.434;2024-02-23T02:43:07;98848.22;;;4.37;100.00
71791;BME280;59638;52.126;5.434;2024-02-23T02:45:34;98848.22;;;4.37;100.00
71791;BME280;59638;52.126;5.434;2024-02-23T02:48:00;98856.72;;;4.39;100.00
71791;BME280;59638;52.126;5.434;2024-02-23T02:50:30;98862.75;;;4.40;100.00
71791;BME280;59638;52.126;5.434;2024-02-23T02:52:57;98863.56;;;4.40;100.00
71791;BME280;59638;52.126;5.434;2024-02-23T02:55:23;98860.00;;;4.41;100.00
71791;BME280;59638;52.126;5.434;2024-02-23T02:57:50;98878.00;;;4.44;100.00
71791;BME280;59638;52.126;5.434;2024-02-23T03:00:16;98867.09;;;4.49;100.00
71791;BME280;59638;52.126;5.434;2024-02-23T03:02:43;98862.16;;;4.46;100.00
71791;BME280;59638;52.126;5.434;2024-02-23T03:05:09;98862.25;;;4.36;100.00
71791;BME280;59638;52.126;5.434;2024-02-23T03:07:35;98864.16;;;4.34;100.00
71791;BME280;59638;52.126;5.434;2024-02-23T03:10:02;98860.28;;;4.38;100.00
71791;BME280;59638;52.126;5.434;2024-02-23T03:12:29;98861.53;;;4.34;100.00
71791;BME280;59638;52.126;5.434;2024-02-23T03:14:55;98866.09;;;4.32;100.00
71791;BME280;59638;52.126;5.434;2024-02-23T03:17:22;98882.28;;;4.35;100.00
71791;BME280;59638;52.126;5.434;2024-02-23T03:19:49;98885.75;;;4.36;100.00
71791;BME280;59638;52.126;5.434;2024-02-23T03:22:19;98877.06;;;4.35;100.00
71791;BME280;59638;52.126;5.434;2024-02-23T03:24:45;98882.06;;;4.29;100.00
71791;BME280;59638;52.126;5.434;2024-02-23T03:27:12;98885.78;;;4.26;100.00
71791;BME280;59638;52.126;5.434;2024-02-23T03:29:39;98882.34;;;4.26;100.00
71791;BME280;59638;52.126;5.434;2024-02-23T03:32:06;98884.97;;;4.26;100.00
71791;BME280;59638;52.126;5.434;2024-02-23T03:34:32;98887.88;;;4.23;100.00
71791;BME280;59638;52.126;5.434;2024-02-23T03:36:59;98887.88;;;4.23;100.00
71791;BME280;59638;52.126;5.434;2024-02-23T03:39:27;98894.75;;;4.24;100.00
71791;BME280;59638;52.126;5.434;2024-02-23T03:41:54;98896.91;;;4.28;100.00
71791;BME280;59638;52.126;5.434;2024-02-23T03:44:21;98898.31;;;4.23;100.00
71791;BME280;59638;52.126;5.434;2024-02-23T03:46:47;98899.84;;;4.16;100.00
71791;BME280;59638;52.126;5.434;2024-02-23T03:49:14;98918.72;;;4.09;100.00
71791;BME280;59638;52.126;5.434;2024-02-23T03:51:41;98920.47;;;4.09;100.00
71791;BME280;59638;52.126;5.434;2024-02-23T03:54:07;98915.16;;;4.11;100.00
71791;BME280;59638;52.126;5.434;2024-02-23T03:56:40;98907.69;;;4.16;100.00
71791;BME280;59638;52.126;5.434;2024-02-23T03:59:08;98909.34;;;4.17;100.00
71791;BME280;59638;52.126;5.434;2024-02-23T04:01:38;98915.50;;;4.16;100.00
71791;BME280;59638;52.126;5.434;2024-02-23T04:04:06;98913.44;;;4.19;100.00
71791;BME280;59638;52.126;5.434;2024-02-23T04:06:35;98926.94;;;4.15;100.00
71791;BME280;59638;52.126;5.434;2024-02-23T04:09:02;98914.16;;;4.12;100.00
71791;BME280;59638;52.126;5.434;2024-02-23T04:11:31;98925.84;;;4.07;100.00
71791;BME280;59638;52.126;5.434;2024-02-23T04:13:58;98928.78;;;4.04;100.00
71791;BME280;59638;52.126;5.434;2024-02-23T04:16:25;98919.56;;;4.00;100.00
71791;BME280;59638;52.126;5.434;2024-02-23T04:18:53;98921.78;;;3.95;100.00
71791;BME280;59638;52.126;5.434;2024-02-23T04:21:20;98921.09;;;3.93;100.00
71791;BME280;59638;52.126;5.434;2024-02-23T04:23:46;98926.31;;;3.93;100.00
71791;BME280;59638;52.126;5.434;2024-02-23T04:26:15;98928.94;;;3.93;100.00
71791;BME280;59638;52.126;5.434;2024-02-23T04:28:41;98928.94;;;3.93;100.00
71791;BME280;59638;52.126;5.434;2024-02-23T04:31:09;98935.78;;;3.94;100.00
71791;BME280;59638;52.126;5.434;2024-02-23T04:33:36;98938.69;;;3.91;100.00
71791;BME280;59638;52.126;5.434;2024-02-23T04:36:04;98938.44;;;3.85;100.00
71791;BME280;59638;52.126;5.434;2024-02-23T04:38:31;98933.09;;;3.86;100.00
71791;BME280;59638;52.126;5.434;2024-02-23T04:40:58;98938.59;;;3.83;100.00
71791;BME280;59638;52.126;5.434;2024-02-23T04:43:24;98950.28;;;3.79;100.00
71791;BME280;59638;52.126;5.434;2024-02-23T04:45:51;98954.81;;;3.77;100.00
71791;BME280;59638;52.126;5.434;2024-02-23T04:48:18;98960.28;;;3.74;100.00
71791;BME280;59638;52.126;5.434;2024-02-23T04:50:44;98960.03;;;3.77;100.00
71791;BME280;59638;52.126;5.434;2024-02-23T04:53:11;98958.78;;;3.81;100.00
71791;BME280;59638;52.126;5.434;2024-02-23T04:55:37;98957.25;;;3.88;100.00
71791;BME280;59638;52.126;5.434;2024-02-23T04:58:04;98957.94;;;3.90;100.00
71791;BME280;59638;52.126;5.434;2024-02-23T05:00:30;98954.78;;;3.96;100.00
71791;BME280;59638;52.126;5.434;2024-02-23T05:03:00;98959.69;;;3.99;100.00
71791;BME280;59638;52.126;5.434;2024-02-23T05:05:30;98955.84;;;4.03;100.00
71791;BME280;59638;52.126;5.434;2024-02-23T05:07:57;98953.22;;;4.03;100.00
71791;BME280;59638;52.126;5.434;2024-02-23T05:10:23;98955.84;;;4.03;100.00
71791;BME280;59638;52.126;5.434;2024-02-23T05:12:50;98962.72;;;4.04;100.00
71791;BME280;59638;52.126;5.434;2024-02-23T05:15:16;98958.84;;;4.08;100.00
71791;BME280;59638;52.126;5.434;2024-02-23T05:17:43;98956.91;;;4.11;100.00
71791;BME280;59638;52.126;5.434;2024-02-23T05:20:10;98953.03;;;4.15;100.00
71791;BME280;59638;52.126;5.434;2024-02-23T05:22:38;98956.19;;;4.18;100.00
71791;BME280;59638;52.126;5.434;2024-02-23T05:25:05;98961.28;;;4.20;100.00
71791;BME280;59638;52.126;5.434;2024-02-23T05:27:32;98947.09;;;4.22;100.00
71791;BME280;59638;52.126;5.434;2024-02-23T05:29:59;98952.06;;;4.25;100.00
71791;BME280;59638;52.126;5.434;2024-02-23T05:32:26;98941.44;;;4.27;100.00
71791;BME280;59638;52.126;5.434;2024-02-23T05:34:52;98960.94;;;4.32;100.00
71791;BME280;59638;52.126;5.434;2024-02-23T05:37:20;98958.19;;;4.34;100.00
71791;BME280;59638;52.126;5.434;2024-02-23T05:39:46;98956.28;;;4.36;100.00
71791;BME280;59638;52.126;5.434;2024-02-23T05:42:13;98956.78;;;4.40;100.00
71791;BME280;59638;52.126;5.434;2024-02-23T05:44:42;98962.56;;;4.43;100.00
71791;BME280;59638;52.126;5.434;2024-02-23T05:47:09;98956.22;;;4.46;100.00
71791;BME280;59638;52.126;5.434;2024-02-23T05:49:36;98948.53;;;4.44;100.00
71791;BME280;59638;52.126;5.434;2024-02-23T05:52:02;98949.63;;;4.42;100.00
71791;BME280;59638;52.126;5.434;2024-02-23T05:54:29;98962.84;;;4.40;100.00
71791;BME280;59638;52.126;5.434;2024-02-23T05:56:55;98955.00;;;4.40;100.00
71791;BME280;59638;52.126;5.434;2024-02-23T05:59:22;98950.44;;;4.42;100.00
71791;BME280;59638;52.126;5.434;2024-02-23T06:01:48;98958.97;;;4.44;100.00
71791;BME280;59638;52.126;5.434;2024-02-23T06:04:15;98958.16;;;4.44;100.00
71791;BME280;59638;52.126;5.434;2024-02-23T06:06:42;98956.75;;;4.49;100.00
71791;BME280;59638;52.126;5.434;2024-02-23T06:09:09;98951.91;;;4.54;100.00
71791;BME280;59638;52.126;5.434;2024-02-23T06:11:36;98957.81;;;4.56;100.00
71791;BME280;59638;52.126;5.434;2024-02-23T06:14:02;98964.38;;;4.60;100.00
71791;BME280;59638;52.126;5.434;2024-02-23T06:16:29;98962.47;;;4.62;100.00
71791;BME280;59638;52.126;5.434;2024-02-23T06:18:55;98964.13;;;4.63;100.00
71791;BME280;59638;52.126;5.434;2024-02-23T06:21:22;98958.88;;;4.63;100.00
71791;BME280;59638;52.126;5.434;2024-02-23T06:23:48;98962.16;;;4.66;100.00
71791;BME280;59638;52.126;5.434;2024-02-23T06:26:15;98958.59;;;4.67;100.00
71791;BME280;59638;52.126;5.434;2024-02-23T06:28:42;98961.84;;;4.69;100.00
71791;BME280;59638;52.126;5.434;2024-02-23T06:31:09;98964.88;;;4.74;100.00
71791;BME280;59638;52.126;5.434;2024-02-23T06:33:36;98955.94;;;4.76;100.00
71791;BME280;59638;52.126;5.434;2024-02-23T06:36:03;98971.16;;;4.81;100.00
71791;BME280;59638;52.126;5.434;2024-02-23T06:38:30;98970.06;;;4.83;100.00
71791;BME280;59638;52.126;5.434;2024-02-23T06:40:57;98974.16;;;4.86;100.00
71791;BME280;59638;52.126;5.434;2024-02-23T06:43:23;98972.06;;;4.89;100.00
71791;BME280;59638;52.126;5.434;2024-02-23T06:45:50;98982.22;;;4.93;100.00
71791;BME280;59638;52.126;5.434;2024-02-23T06:48:16;98973.25;;;4.95;100.00
71791;BME280;59638;52.126;5.434;2024-02-23T06:50:43;98976.56;;;4.97;100.00
71791;BME280;59638;52.126;5.434;2024-02-23T06:53:10;98971.03;;;5.00;100.00
71791;BME280;59638;52.126;5.434;2024-02-23T06:55:36;98972.66;;;5.01;100.00
71791;BME280;59638;52.126;5.434;2024-02-23T06:58:03;98971.72;;;5.02;100.00
71791;BME280;59638;52.126;5.434;2024-02-23T07:00:31;98970.44;;;5.06;100.00
71791;BME280;59638;52.126;5.434;2024-02-23T07:02:57;98977.31;;;5.07;100.00
71791;BME280;59638;52.126;5.434;2024-02-23T07:05:29;98962.16;;;5.11;100.00
71791;BME280;59638;52.126;5.434;2024-02-23T07:07:56;98952.19;;;5.14;100.00
71791;BME280;59638;52.126;5.434;2024-02-23T07:10:23;98980.03;;;5.15;100.00
71791;BME280;59638;52.126;5.434;2024-02-23T07:12:51;98982.75;;;5.14;100.00
71791;BME280;59638;52.126;5.434;2024-02-23T07:15:22;98967.06;;;5.14;100.00
71791;BME280;59638;52.126;5.434;2024-02-23T07:17:49;98977.41;;;5.15;100.00
71791;BME280;59638;52.126;5.434;2024-02-23T07:20:15;98973.81;;;5.16;100.00
71791;BME280;59638;52.126;5.434;2024-02-23T07:22:44;98975.16;;;5.21;100.00
71791;BME280;59638;52.126;5.434;2024-02-23T07:25:11;98981.06;;;5.23;100.00
71791;BME280;59638;52.126;5.434;2024-02-23T07:27:38;98978.81;;;5.28;100.00
71791;BME280;59638;52.126;5.434;2024-02-23T07:30:05;98978.53;;;5.31;100.00
71791;BME280;59638;52.126;5.434;2024-02-23T07:32:31;98974.66;;;5.35;100.00
71791;BME280;59638;52.126;5.434;2024-02-23T07:34:58;98979.56;;;5.38;100.00
71791;BME280;59638;52.126;5.434;2024-02-23T07:37:28;98974.34;;;5.38;100.00
71791;BME280;59638;52.126;5.434;2024-02-23T07:39:55;98974.34;;;5.38;100.00
71791;BME280;59638;52.126;5.434;2024-02-23T07:42:21;98973.34;;;5.39;100.00
71791;BME280;59638;52.126;5.434;2024-02-23T07:44:48;98970.47;;;5.42;100.00
71791;BME280;59638;52.126;5.434;2024-02-23T07:47:14;98959.69;;;5.45;100.00
71791;BME280;59638;52.126;5.434;2024-02-23T07:49:40;98960.44;;;5.55;100.00
71791;BME280;59638;52.126;5.434;2024-02-23T07:52:07;98947.06;;;5.66;100.00
71791;BME280;59638;52.126;5.434;2024-02-23T07:54:33;98942.88;;;5.73;100.00
71791;BME280;59638;52.126;5.434;2024-02-23T07:57:00;98953.06;;;5.77;100.00
71791;BME280;59638;52.126;5.434;2024-02-23T07:59:26;98947.81;;;5.77;100.00
71791;BME280;59638;52.126;5.434;2024-02-23T08:01:54;98947.97;;;5.75;100.00
71791;BME280;59638;52.126;5.434;2024-02-23T08:04:21;98937.94;;;5.70;100.00
71791;BME280;59638;52.126;5.434;2024-02-23T08:06:48;98938.94;;;5.69;100.00
71791;BME280;59638;52.126;5.434;2024-02-23T08:09:15;98949.56;;;5.68;100.00
71791;BME280;59638;52.126;5.434;2024-02-23T08:11:41;98937.28;;;5.68;100.00
71791;BME280;59638;52.126;5.434;2024-02-23T08:14:08;98939.09;;;5.68;100.00
71791;BME280;59638;52.126;5.434;2024-02-23T08:16:34;98933.00;;;5.67;100.00
71791;BME280;59638;52.126;5.434;2024-02-23T08:19:01;98929.13;;;5.71;100.00
71791;BME280;59638;52.126;5.434;2024-02-23T08:21:27;98939.81;;;5.78;100.00
71791;BME280;59638;52.126;5.434;2024-02-23T08:23:54;98922.66;;;5.84;100.00
71791;BME280;59638;52.126;5.434;2024-02-23T08:26:20;98934.78;;;5.85;100.00
71791;BME280;59638;52.126;5.434;2024-02-23T08:28:47;98935.09;;;5.82;100.00
71791;BME280;59638;52.126;5.434;2024-02-23T08:31:13;98928.19;;;5.81;100.00
71791;BME280;59638;52.126;5.434;2024-02-23T08:33:40;98943.41;;;5.77;100.00
71791;BME280;59638;52.126;5.434;2024-02-23T08:36:06;98935.72;;;5.76;100.00
71791;BME280;59638;52.126;5.434;2024-02-23T08:38:33;98923.59;;;5.75;100.00
71791;BME280;59638;52.126;5.434;2024-02-23T08:41:00;98936.69;;;5.75;100.00
71791;BME280;59638;52.126;5.434;2024-02-23T08:43:26;98931.56;;;5.73;100.00
71791;BME280;59638;52.126;5.434;2024-02-23T08:45:53;98919.47;;;5.72;100.00
71791;BME280;59638;52.126;5.434;2024-02-23T08:48:19;98905.41;;;5.73;100.00
71791;BME280;59638;52.126;5.434;2024-02-23T08:50:46;98904.59;;;5.72;100.00
71791;BME280;59638;52.126;5.434;2024-02-23T08:53:12;98912.59;;;5.71;100.00
71791;BME280;59638;52.126;5.434;2024-02-23T08:55:39;98916.19;;;5.70;100.00
71791;BME280;59638;52.126;5.434;2024-02-23T08:58:05;98914.41;;;5.70;100.00
71791;BME280;59638;52.126;5.434;2024-02-23T09:00:32;98922.53;;;5.67;100.00
71791;BME280;59638;52.126;5.434;2024-02-23T09:02:59;98915.00;;;5.64;100.00
71791;BME280;59638;52.126;5.434;2024-02-23T09:05:26;98920.25;;;5.64;100.00
71791;BME280;59638;52.126;5.434;2024-02-23T09:07:52;98915.00;;;5.64;100.00
71791;BME280;59638;52.126;5.434;2024-02-23T09:10:19;98924.22;;;5.68;100.00
71791;BME280;59638;52.126;5.434;2024-02-23T09:12:46;98918.34;;;5.75;100.00
71791;BME280;59638;52.126;5.434;2024-02-23T09:15:13;98922.28;;;5.79;100.00
71791;BME280;59638;52.126;5.434;2024-02-23T09:17:40;98924.25;;;5.77;100.00
71791;BME280;59638;52.126;5.434;2024-02-23T09:20:08;98931.91;;;5.70;100.00
71791;BME280;59638;52.126;5.434;2024-02-23T09:22:35;98933.84;;;5.68;100.00
71791;BME280;59638;52.126;5.434;2024-02-23T09:25:03;98941.56;;;5.69;100.00
71791;BME280;59638;52.126;5.434;2024-02-23T09:27:31;98936.00;;;5.72;100.00
71791;BME280;59638;52.126;5.434;2024-02-23T09:29:58;98931.13;;;5.78;100.00
71791;BME280;59638;52.126;5.434;2024-02-23T09:32:25;98930.34;;;5.85;100.00
71791;BME280;59638;52.126;5.434;2024-02-23T09:34:51;98938.72;;;5.89;100.00
71791;BME280;59638;52.126;5.434;2024-02-23T09:37:18;98941.34;;;5.89;100.00
71791;BME280;59638;52.126;5.434;2024-02-23T09:39:44;98939.56;;;5.89;100.00
71791;BME280;59638;52.126;5.434;2024-02-23T09:42:11;98933.34;;;5.90;100.00
71791;BME280;59638;52.126;5.434;2024-02-23T09:44:37;98940.38;;;5.90;100.00
71791;BME280;59638;52.126;5.434;2024-02-23T09:47:04;98950.84;;;5.90;100.00
71791;BME280;59638;52.126;5.434;2024-02-23T09:49:37;98947.28;;;5.91;100.00
71791;BME280;59638;52.126;5.434;2024-02-23T09:52:07;98950.56;;;5.93;100.00
71791;BME280;59638;52.126;5.434;2024-02-23T09:54:34;98967.38;;;5.90;100.00
71791;BME280;59638;52.126;5.434;2024-02-23T09:57:05;98959.00;;;5.87;100.00
71791;BME280;59638;52.126;5.434;2024-02-23T09:59:34;98978.13;;;5.87;100.00
71791;BME280;59638;52.126;5.434;2024-02-23T10:02:02;98976.66;;;5.85;100.00
71791;BME280;59638;52.126;5.434;2024-02-23T10:04:33;98960.06;;;5.94;100.00
71791;BME280;59638;52.126;5.434;2024-02-23T10:06:59;98947.72;;;6.12;100.00
71791;BME280;59638;52.126;5.434;2024-02-23T10:09:26;98972.06;;;6.31;100.00
71791;BME280;59638;52.126;5.434;2024-02-23T10:11:53;98949.84;;;6.43;100.00
71791;BME280;59638;52.126;5.434;2024-02-23T10:14:20;98962.34;;;6.57;100.00
71791;BME280;59638;52.126;5.434;2024-02-23T10:16:47;98969.69;;;6.53;100.00
71791;BME280;59638;52.126;5.434;2024-02-23T10:19:15;98978.69;;;6.51;100.00
71791;BME280;59638;52.126;5.434;2024-02-23T10:21:41;98975.91;;;6.52;100.00
71791;BME280;59638;52.126;5.434;2024-02-23T10:24:09;98977.25;;;6.57;100.00
71791;BME280;59638;52.126;5.434;2024-02-23T10:26:35;98974.13;;;6.53;100.00
71791;BME280;59638;52.126;5.434;2024-02-23T10:29:02;98974.81;;;6.55;100.00
71791;BME280;59638;52.126;5.434;2024-02-23T10:31:34;98981.03;;;6.54;100.00
71791;BME280;59638;52.126;5.434;2024-02-23T10:34:07;98987.03;;;6.46;100.00
71791;BME280;59638;52.126;5.434;2024-02-23T10:36:41;98984.38;;;6.38;100.00
71791;BME280;59638;52.126;5.434;2024-02-23T10:39:09;98980.75;;;6.31;100.00
71791;BME280;59638;52.126;5.434;2024-02-23T10:41:36;99005.75;;;6.25;100.00
71791;BME280;59638;52.126;5.434;2024-02-23T10:44:07;99002.47;;;6.23;100.00
71791;BME280;59638;52.126;5.434;2024-02-23T10:46:33;98999.19;;;6.21;100.00
71791;BME280;59638;52.126;5.434;2024-02-23T10:49:01;98999.81;;;6.15;100.00
71791;BME280;59638;52.126;5.434;2024-02-23T10:51:29;99005.06;;;6.15;100.00
71791;BME280;59638;52.126;5.434;2024-02-23T10:53:57;99010.78;;;6.19;100.00
71791;BME280;59638;52.126;5.434;2024-02-23T10:56:23;99004.13;;;6.24;100.00
71791;BME280;59638;52.126;5.434;2024-02-23T10:58:52;99015.81;;;6.38;100.00
71791;BME280;59638;52.126;5.434;2024-02-23T11:01:19;99012.63;;;6.52;100.00
71791;BME280;59638;52.126;5.434;2024-02-23T11:03:47;99022.81;;;6.56;100.00
71791;BME280;59638;52.126;5.434;2024-02-23T11:06:17;99016.16;;;6.77;100.00
71791;BME280;59638;52.126;5.434;2024-02-23T11:08:47;99017.50;;;7.48;100.00
71791;BME280;59638;52.126;5.434;2024-02-23T11:11:16;99018.28;;;7.24;100.00
71791;BME280;59638;52.126;5.434;2024-02-23T11:13:44;99017.28;;;7.25;100.00
71791;BME280;59638;52.126;5.434;2024-02-23T11:16:21;99036.69;;;7.49;100.00
71791;BME280;59638;52.126;5.434;2024-02-23T11:18:48;99012.41;;;7.47;100.00
71791;BME280;59638;52.126;5.434;2024-02-23T11:21:14;99015.69;;;7.49;100.00
71791;BME280;59638;52.126;5.434;2024-02-23T11:23:41;99011.44;;;7.48;100.00
71791;BME280;59638;52.126;5.434;2024-02-23T11:26:10;99028.19;;;7.63;100.00
71791;BME280;59638;52.126;5.434;2024-02-23T11:28:52;99020.47;;;7.94;100.00
71791;BME280;59638;52.126;5.434;2024-02-23T11:31:22;99021.63;;;7.83;100.00
71791;BME280;59638;52.126;5.434;2024-02-23T11:33:54;99032.75;;;7.85;100.00
71791;BME280;59638;52.126;5.434;2024-02-23T11:36:32;99017.66;;;7.71;100.00
71791;BME280;59638;52.126;5.434;2024-02-23T11:39:00;99011.94;;;7.68;100.00
71791;BME280;59638;52.126;5.434;2024-02-23T11:41:28;99013.09;;;7.81;100.00
71791;BME280;59638;52.126;5.434;2024-02-23T11:43:55;99030.97;;;7.78;100.00
71791;BME280;59638;52.126;5.434;2024-02-23T11:46:22;99021.97;;;7.80;100.00
71791;BME280;59638;52.126;5.434;2024-02-23T11:48:49;99026.34;;;8.37;100.00
71791;BME280;59638;52.126;5.434;2024-02-23T11:51:26;99028.47;;;8.41;100.00
71791;BME280;59638;52.126;5.434;2024-02-23T11:53:55;99035.03;;;8.29;100.00
71791;BME280;59638;52.126;5.434;2024-02-23T11:56:24;99028.28;;;8.43;100.00
71791;BME280;59638;52.126;5.434;2024-02-23T11:58:51;99028.47;;;8.25;100.00
71791;BME280;59638;52.126;5.434;2024-02-23T12:01:17;99031.44;;;7.98;100.00
71791;BME280;59638;52.126;5.434;2024-02-23T12:03:43;99041.31;;;7.96;100.00
71791;BME280;59638;52.126;5.434;2024-02-23T12:06:11;99044.78;;;7.88;100.00
71791;BME280;59638;52.126;5.434;2024-02-23T12:08:39;99051.84;;;7.87;100.00
71791;BME280;59638;52.126;5.434;2024-02-23T12:11:07;99041.63;;;7.84;100.00
71791;BME280;59638;52.126;5.434;2024-02-23T12:13:38;99028.03;;;7.73;100.00
71791;BME280;59638;52.126;5.434;2024-02-23T12:16:07;99045.56;;;7.64;100.00
71791;BME280;59638;52.126;5.434;2024-02-23T12:18:34;99036.69;;;7.65;100.00
71791;BME280;59638;52.126;5.434;2024-02-23T12:21:04;99044.28;;;7.76;100.00
71791;BME280;59638;52.126;5.434;2024-02-23T12:23:41;99049.69;;;7.99;100.00
71791;BME280;59638;52.126;5.434;2024-02-23T12:26:08;99031.94;;;8.09;100.00
71791;BME280;59638;52.126;5.434;2024-02-23T12:28:36;99041.63;;;8.17;100.00
71791;BME280;59638;52.126;5.434;2024-02-23T12:31:03;99042.91;;;8.29;100.00
71791;BME280;59638;52.126;5.434;2024-02-23T12:33:37;99034.06;;;8.22;100.00
71791;BME280;59638;52.126;5.434;2024-02-23T12:36:07;99047.56;;;8.19;100.00
71791;BME280;59638;52.126;5.434;2024-02-23T12:38:35;99051.47;;;8.23;100.00
71791;BME280;59638;52.126;5.434;2024-02-23T12:41:02;99052.13;;;8.25;100.00
71791;BME280;59638;52.126;5.434;2024-02-23T12:43:29;99041.97;;;8.14;100.00
71791;BME280;59638;52.126;5.434;2024-02-23T12:45:57;99052.94;;;8.17;100.00
71791;BME280;59638;52.126;5.434;2024-02-23T12:48:23;99032.00;;;8.73;100.00
71791;BME280;59638;52.126;5.434;2024-02-23T12:50:50;99055.03;;;8.63;100.00
71791;BME280;59638;52.126;5.434;2024-02-23T12:56:04;99052.03;;;8.74;100.00
71791;BME280;59638;52.126;5.434;2024-02-23T12:58:39;99050.72;;;8.78;100.00
71791;BME280;59638;52.126;5.434;2024-02-23T13:01:06;99057.97;;;8.68;100.00
71791;BME280;59638;52.126;5.434;2024-02-23T13:03:37;99058.63;;;8.70;100.00